Frey Ranch - Fallon, Nevada Weather observations

Data are for observation ending at time listed.
 Day   Time    Ave.   Ave.  Ave.  Vector   Max.   Stn.    Total    Solar   Ave.  
  of    of     Air    Rel.  Wind   Wind    Wind   Baro.  Precip.   Rad.    Soil  
Year   Day     Temp.  Hum.  Speed  Dir.    Gust   Pres.                    Temp. 
2014   (PST)    F      %     mph   deg.    mph     mb.     in.     W/m2     F   
------------------------------------------------------------------------------
 324   20:40   40.1    51    0.9   299      2.9   999.0    0.00       0    45.0
 324   20:50   38.6    54    1.7   275      2.4   999.0    0.00       0    45.1
 324   21:00   38.4    54    0.4   291      1.9   999.0    0.00       0    45.1
 324   21:10   39.9    51    0.1   292      0.8   999.0    0.00       0    45.2
 324   21:20   38.5    54    1.7   295      2.7   999.0    0.00       0    45.3
 324   21:30   38.2    55    2.3   312      3.1   999.0    0.00       0    45.4
 324   21:40   36.9    56    3.2   295      5.6   999.0    0.00       0    45.4
 324   21:50   35.3    58    2.9   262      4.2   999.0    0.00       0    45.5
 324   22:00   35.3    60    3.1   293      4.7   999.0    0.00       0    45.6
 324   22:10   36.5    58    2.1   316      3.0   999.0    0.00       0    45.7
 324   22:20   34.7    61    3.6   314      4.7   999.0    0.00       0    45.8
 324   22:30   33.7    64    3.3   315      4.2   999.0    0.00       0    45.8
 324   22:40   33.9    64    1.8   315      3.3   999.0    0.00       0    45.9
 324   22:50   34.4    64    0.9   312      2.4   999.0    0.00       0    46.0
 324   23:00   33.2    65    2.7   312      3.8   999.0    0.00       0    46.1
 324   23:10   34.1    66    1.7   316      2.7   999.0    0.00       0    46.2
 324   23:20   33.5    64    2.2    96      4.5   999.0    0.00       0    46.3
 324   23:30   32.5    66    1.7   118      3.1   999.0    0.00       0    46.3
 324   23:40   32.5    65    2.1   114      3.4   999.0    0.00       0    46.4
 324   23:50   32.2    67    2.0   107      3.7   999.0    0.00       0    46.5
 325    0:00   32.4    65    0.5   123      1.9   999.0    0.00       0    46.6
 325    0:10   32.1    67    0.8   100      2.9   999.0    0.00       0    46.6
 325    0:20   32.8    64    1.3   172      2.8   999.0    0.00       0    46.7
 325    0:30   29.9    67    2.6   253      3.6   999.0    0.00       0    46.8
 325    0:40   29.8    71    2.5   322      5.2   999.0    0.00       0    46.8
 325    0:50   31.1    71    1.0    91      2.8   999.0    0.00       0    46.9
 325    1:00   31.2    72    2.0   319      3.0   999.0    0.00       0    46.9
 325    1:10   32.0    75    0.6   318      2.4   999.0    0.00       0    47.0
 325    1:20   31.2    74    1.4   262      3.1   999.0    0.00       0    47.0
 325    1:30   30.9    80    3.1   287      4.8   999.0    0.00       0    47.0
 325    1:40   30.5    79    2.8    41      5.3   999.0    0.00       0    47.1
 325    1:50   30.2    80    2.7   179      4.2   999.0    0.00       0    47.1
 325    2:00   30.6    79    1.2   107      2.5   999.0    0.00       0    47.2
 325    2:10   30.9    80    0.1   103      1.3   999.0    0.00       0    47.2
 325    2:20   31.3    80    0.0     0      0.0   999.0    0.00       0    47.2
 325    2:30   31.2    79    1.1   103      1.8   999.0    0.00       0    47.2
 325    2:40   31.2    79    0.0   103      1.2   999.0    0.00       0    47.3
 325    2:50   30.8    79    0.0     0      0.0   999.0    0.00       0    47.3
 325    3:00   29.8    78    0.7   121      2.7   999.0    0.00       0    47.3
 325    3:10   26.7    76    1.0   179      3.0   999.0    0.00       0    47.3
 325    3:20   26.2    79    0.5   152      2.2   999.0    0.00       0    47.3
 325    3:30   27.0    80    1.4   284      3.4   999.0    0.00       0    47.4
 325    3:40   26.7    80    2.4   287      3.3   999.0    0.00       0    47.4
 325    3:50   27.8    82    1.1   288      2.5   999.0    0.00       0    47.4
 325    4:00   28.7    82    2.4   289      2.9   999.0    0.00       0    47.4
 325    4:10   29.1    83    1.9   288      2.8   999.0    0.00       0    47.4
 325    4:20   29.3    83    1.2   299      2.4   999.0    0.00       0    47.4
 325    4:30   29.8    83    0.3   299      1.8   999.0    0.00       0    47.4
 325    4:40   29.4    82    0.0   216      0.7   999.0    0.00       0    47.4
 325    4:50   26.4    80    1.2   111      2.4   999.0    0.00       0    47.4
 325    5:00   26.0    81    1.1   111      2.3   999.0    0.00       0    47.4
 325    5:10   26.5    82    2.0    79      4.5   999.0    0.00       0    47.4
 325    5:20   27.4    84    4.3    66      5.2   999.0    0.00       0    47.4
 325    5:30   26.0    83    3.5    84      4.7   999.0    0.00       0    47.4
 325    5:40   25.3    84    2.6    93      3.6   999.0    0.00       0    47.3
 325    5:50   24.7    83    0.7   105      3.6   999.0    0.00       0    47.3
 325    6:00   25.2    84    0.9   112      2.3   999.0    0.00       0    47.3
 325    6:10   25.0    84    1.4   106      2.7   999.0    0.00       0    47.2
 325    6:20   25.4    85    0.2   135      2.3   999.0    0.00       0    47.2
 325    6:30   25.2    85    1.1   144      2.3   999.0    0.00       2    47.2
 325    6:40   26.2    86    1.6   136      3.1   999.0    0.00       5    47.1
 325    6:50   27.0    87    1.9   122      3.8   999.0    0.00      13    47.1
 325    7:00   28.3    87    2.0    97      3.3   999.0    0.00      40    47.0
 325    7:10   27.7    85    4.1    73      5.7   999.0    0.00      77    47.0
 325    7:20   27.8    85    3.9    73      5.4   999.0    0.00     120    46.9
 325    7:30   29.3    84    3.1    83      4.9   999.0    0.00     162    46.9
 325    7:40   32.0    80    0.1    86      1.5   999.0    0.00     192    46.8
 325    7:50   35.6    76    0.0     0      0.0   999.0    0.00     219    46.7
 325    8:00   39.2    67    0.0     0      0.0   999.0    0.00     219    46.6
 325    8:10   37.8    71    1.0   232      2.2   999.0    0.00     241    46.6
 325    8:20   38.1    74    2.5   265      3.7   999.0    0.00     296    46.5
 325    8:30   40.5    71    2.3   286      4.6   999.0    0.00     343    46.4
 325    8:40   41.9    69    2.6   249      4.3   999.0    0.00     337    46.3
 325    8:50   43.0    66    3.1   256      5.0   999.0    0.00     331    46.3
 325    9:00   43.8    64    4.8   265      7.6   999.0    0.00     291    46.2
 325    9:10   43.9    63    3.9   254      5.7   999.0    0.00     362    46.1
 325    9:20   44.4    62    4.3   248      6.2   999.0    0.00     415    46.1
 325    9:30   45.2    60    4.0   245      8.5   999.0    0.00     445    46.0
 325    9:40   45.9    59    4.2   226      6.7   999.0    0.00     465    46.0
 325    9:50   46.6    57    4.9   242      8.1   999.0    0.00     487    45.9
 325   10:00   47.4    56    4.5   241      7.6   999.0    0.00     504    45.9
 325   10:10   47.5    57    3.7   230      7.2   999.0    0.00     520    45.8
 325   10:20   47.8    56    4.1   212      8.0   999.0    0.00     539    45.7
 325   10:30   48.6    55    3.3   198      6.1   999.0    0.00     494    45.6
 325   10:40   48.8    54    4.2   200      7.0   999.0    0.00     510    45.6
 325   10:50   49.3    53    3.6   169      8.6   999.0    0.00     533    45.5
 325   11:00   49.5    52    4.4   201      8.5   999.0    0.00     548    45.4
 325   11:10   50.2    51    3.5   170      6.8   999.0    0.00     564    45.4
 325   11:20   50.8    50    4.7   153      7.8   999.0    0.00     568    45.3
 325   11:30   50.9    50    2.8   138      7.4   999.0    0.00     563    45.2
 325   11:40   51.2    49    3.0   200      6.1   999.0    0.00     572    45.1
 325   11:50   51.4    49    4.1   136      8.5   999.0    0.00     571    45.0
 325   12:00   51.7    48    4.7   131      8.1   999.0    0.00     568    44.9
 325   12:10   52.3    47    3.4   114      9.4   999.0    0.00     593    44.8
 325   12:20   52.4    46    4.1   111      8.5   999.0    0.00     572    44.7
 325   12:30   52.4    46    4.2    92      7.6   999.0    0.00     541    44.6
 325   12:40   53.0    44    3.5    91      7.5   999.0    0.00     543    44.4
 325   12:50   53.7    43    3.6   114      8.0   999.0    0.00     512    44.3
 325   13:00   54.2    41    3.6   135      7.4   999.0    0.00     554    44.1
 325   13:10   54.7    40    2.5    98      6.4   999.0    0.00     508    43.9
 325   13:20   54.9    40    2.9   212      6.5   999.0    0.00     438    43.8
 325   13:30   55.3    39    3.4   255      6.2   999.0    0.00     435    43.6
 325   13:40   55.5    38    3.8   113      6.5   999.0    0.00     442    43.5
 325   13:50   55.6    38    2.1   340      5.4   999.0    0.00     396    43.3
 325   14:00   55.9    38    3.3   150      5.1   999.0    0.00     426    43.3
 325   14:10   56.1    37    3.0   113      5.6   999.0    0.00     451    43.2
 325   14:20   56.4    36    2.7   156      4.3   999.0    0.00     379    43.1
 325   14:30   57.4    34    0.9   130      3.3   999.0    0.00     337    43.1
 325   14:40   56.7    36    2.1   196      5.1   999.0    0.00     149    43.1
 325   14:50   54.6    38    1.7   179      3.3   999.0    0.00      99    43.1
 325   15:00   54.6    38    1.6   143      3.8   999.0    0.00      90    43.1
 325   15:10   54.0    38    2.7   105      4.6   999.0    0.00      73    43.1
 325   15:20   54.0    38    1.7   106      2.8   999.0    0.00      49    43.1
 325   15:30   53.9    38    2.6   104      4.2   999.0    0.00      44    43.2
 325   15:40   53.5    39    3.2   103      4.6   999.0    0.00      35    43.2
 325   15:50   53.1    41    3.3   108      4.9   999.0    0.00      29    43.3
 325   16:00   52.8    42    3.1   107      4.6   999.0    0.00      15    43.3
 325   16:10   52.3    43    2.8   102      3.7   999.0    0.00       7    43.4
 325   16:20   51.9    43    2.3   102      3.3   999.0    0.00       2    43.5
 325   16:30   51.7    44    2.6   113      3.9   999.0    0.00       1    43.5
 325   16:40   51.5    45    2.9   115      4.2   999.0    0.00       0    43.6
 325   16:50   51.3    45    2.6   116      4.6   999.0    0.00       0    43.7
 325   17:00   50.8    46    2.3   114      3.1   999.0    0.00       0    43.7
 325   17:10   50.5    46    2.3   116      3.4   999.0    0.00       0    43.8
 325   17:20   49.9    47    2.4   125      3.5   999.0    0.00       0    43.9
 325   17:30   49.5    48    2.3   128      3.0   999.0    0.00       0    44.0
 325   17:40   49.4    48    1.8   130      2.8   999.0    0.00       0    44.1
 325   17:50   49.2    47    1.6   133      2.6   999.0    0.00       0    44.1
 325   18:00   48.9    48    0.7   138      2.3   999.0    0.00       0    44.2
 325   18:10   48.3    49    2.2   305      5.3   999.0    0.00       0    44.3
 325   18:20   48.3    50    2.9   324      4.9   999.0    0.00       0    44.4
 325   18:30   48.0    51    2.6   308      4.9   999.0    0.00       0    44.5
 325   18:40   48.3    50    2.0   282      3.7   999.0    0.00       0    44.5
 325   18:50   48.7    49    2.9   248      5.1   999.0    0.00       0    44.6
 325   19:00   49.0    49    1.9   292      3.4   999.0    0.00       0    44.7
 325   19:10   49.5    49    0.7   316      3.3   999.0    0.00       0    44.8
 325   19:20   49.0    50    2.0    82      3.4   999.0    0.00       0    44.9
 325   19:30   48.6    51    2.5    70      3.5   999.0    0.00       0    44.9
 325   19:40   48.1    52    1.6   103      2.5   999.0    0.00       0    45.0
 325   19:50   47.9    54    2.0   109      5.0   999.0    0.00       0    45.1
 325   20:00   46.7    61    3.7   117      5.7   999.0    0.00       0    45.2
 325   20:10   45.7    65    3.6   105      5.7   999.0    0.00       0    45.2
 325   20:20   45.2    66    4.0   107      6.2   999.0    0.00       0    45.3
 325   20:30   46.0    62    3.1   120      5.1   999.0    0.00       0    45.4

Return to Frey Ranch - Fallon, Nevada graphs page.


Western Regional Climate Center,wrcc@dri.edu